Date,TemperatureHighF,TemperatureAvgF,TemperatureLowF,DewpointHighF,DewpointAvgF,DewpointLowF,HumidityHigh,HumidityAvg,HumidityLow,PressureMaxIn,PressureMinIn,WindSpeedMaxMPH,WindSpeedAvgMPH,GustSpeedMaxMPH,PrecipitationSumIn
2014-1-2,29,29,29,-100,-100,-100,0,0,100,0.00,40.00,0,0,3,0.00
2014-1-6,30,25,19,25,-30,-100,100,48,65,0.00,40.00,1,0,2,0.00
2014-1-7,30,26,24,27,-33,-100,100,48,63,0.00,40.00,1,0,3,0.00
2014-1-8,28,26,25,-100,-100,-100,0,0,100,0.00,40.00,1,0,6,0.00
2014-1-9,32,28,23,-100,-100,-100,0,0,100,0.00,40.00,3,0,12,0.00
2014-1-10,42,35,31,37,-73,-100,100,16,57,0.00,40.00,10,2,28,0.00
2014-1-11,35,31,32,-100,-100,-100,0,0,100,0.00,40.00,2,1,5,0.00
2014-1-12,41,36,31,-100,-100,-100,0,0,100,0.00,40.00,8,3,21,0.00
2014-1-13,46,43,38,38,23,-100,100,65,57,0.00,40.00,10,7,27,0.00
2014-1-14,41,34,29,-100,-100,-100,0,0,100,0.00,40.00,1,0,3,0.00
2014-1-15,40,31,26,-100,-100,-100,0,0,100,0.00,40.00,1,0,6,0.00
2014-1-16,36,29,26,-100,-100,-100,0,0,100,0.00,40.00,1,0,5,0.00
2014-1-17,32,28,27,-100,-100,-100,0,0,100,0.00,40.00,1,0,3,0.00
2014-1-18,30,26,26,-100,-100,-100,0,0,100,0.00,40.00,1,0,5,0.00
2014-1-19,29,27,26,-100,-100,-100,0,0,100,0.00,40.00,2,1,6,0.00
2014-1-20,29,27,26,-100,-100,-100,0,0,100,0.00,40.00,2,1,7,0.00
2014-1-21,28,26,24,-100,-100,-100,0,0,100,0.00,40.00,1,0,5,0.00
2014-1-22,33,26,24,-100,-100,-100,0,0,100,0.00,40.00,1,0,7,0.00
2014-1-23,34,29,25,-100,-100,-100,0,0,100,0.00,40.00,5,1,8,0.00
2014-1-24,30,27,26,-100,-100,-100,0,0,100,0.00,40.00,1,1,5,0.00
2014-1-25,29,25,25,-100,-100,-100,0,0,100,0.00,40.00,1,1,6,0.00
2014-1-26,28,26,24,-100,-100,-100,0,0,100,0.00,40.00,1,0,3,0.00
2014-1-27,32,28,24,-100,-100,-100,0,0,100,0.00,40.00,2,1,5,0.00
2014-1-28,31,29,28,-100,-100,-100,0,0,100,0.00,40.00,2,1,6,0.00
2014-1-29,33,29,25,32,-83,-100,100,12,100,0.00,40.00,2,0,6,0.00
2014-1-30,35,29,24,-100,-100,-100,0,0,100,0.00,40.00,2,1,7,0.00
2014-1-31,34,30,28,-100,-100,-100,0,0,100,0.00,40.00,1,0,3,0.00
2014-2-1,29,24,22,-100,-100,-100,0,0,100,0.00,40.00,2,0,6,0.00
2014-2-2,30,25,22,27,-79,-100,100,16,95,0.00,40.00,1,1,5,0.00
2014-2-3,25,22,19,-100,-100,-100,0,0,100,0.00,40.00,2,0,7,0.00
2014-2-4,19,17,13,-100,-100,-100,0,0,100,0.00,40.00,3,1,9,0.00
2014-2-5,13,4,-5,-6,-67,-100,86,25,40,0.00,40.00,3,0,9,0.00
2014-2-6,9,1,-7,7,-4,-12,95,78,54,0.00,40.00,2,0,5,0.00
2014-2-7,20,9,2,15,-36,-100,100,54,55,0.00,40.00,2,0,7,0.00
2014-2-8,23,14,8,17,-70,-100,100,22,43,0.00,40.00,3,1,6,0.00
2014-2-9,26,20,16,-100,-100,-100,0,0,100,0.00,40.00,1,0,5,0.00
2014-2-10,27,22,18,-100,-100,-100,0,0,100,0.00,40.00,1,0,5,0.00
2014-2-11,36,28,20,-100,-100,-100,0,0,100,0.00,40.00,3,1,7,0.00
2014-2-12,42,32,29,-100,-100,-100,0,0,100,0.00,40.00,3,1,12,0.00
2014-2-13,38,33,31,-100,-100,-100,0,0,100,0.00,40.00,1,0,5,0.00
2014-2-14,33,32,31,-100,-100,-100,0,0,100,0.00,40.00,2,0,7,0.00
2014-2-15,32,28,29,-100,-100,-100,0,0,100,0.00,40.00,1,0,3,0.00
2014-2-16,34,32,30,-100,-100,-100,0,0,100,0.00,40.00,2,0,8,0.00
2014-2-17,34,32,31,-100,-100,-100,0,0,100,0.00,40.00,0,0,2,0.00
2014-2-18,32,31,30,-100,-100,-100,0,0,100,0.00,40.00,1,0,2,0.00
2014-2-19,33,30,27,-100,-100,-100,0,0,100,0.00,40.00,3,1,10,0.00
2014-2-20,35,30,27,-100,-100,-100,0,0,100,0.00,40.00,3,1,9,0.00
2014-2-21,37,34,30,-100,-100,-100,0,0,100,0.00,40.00,7,3,17,0.00
2014-2-22,33,28,22,-100,-100,-100,0,0,100,0.00,40.00,2,0,5,0.00
2014-2-23,30,29,27,-100,-100,-100,0,0,100,0.00,40.00,1,0,2,0.00
2014-2-24,30,27,26,-100,-100,-100,0,0,100,0.00,40.00,2,0,5,0.00
2014-2-25,32,28,26,-100,-100,-100,0,0,100,0.00,40.00,2,0,10,0.00
2014-2-26,37,29,24,-100,-100,-100,0,0,100,0.00,40.00,3,0,6,0.00
2014-2-27,41,31,25,-100,-100,-100,0,0,100,0.00,40.00,1,0,5,0.00
2014-2-28,36,31,28,-100,-100,-100,0,0,100,0.00,40.00,1,0,3,0.00
2014-3-1,32,22,16,20,-87,-100,91,10,91,0.00,40.00,2,1,7,0.00
2014-3-2,21,18,15,-100,-100,-100,0,0,100,0.00,40.00,1,0,6,0.00
2014-3-3,28,22,17,-100,-100,-100,0,0,100,0.00,40.00,2,0,6,0.00
2014-3-4,39,32,28,-100,-100,-100,0,0,100,0.00,40.00,2,0,6,0.00
2014-3-5,43,35,32,-100,-100,-100,0,0,100,0.00,40.00,2,1,6,0.00
2014-3-6,41,36,33,-100,-100,-100,0,0,100,0.00,40.00,2,1,7,0.00
2014-3-7,47,36,31,-100,-100,-100,0,0,100,0.00,40.00,6,1,13,0.00
2014-3-8,39,30,28,-100,-100,-100,0,0,100,0.00,40.00,1,0,3,0.00
2014-3-9,50,36,32,-100,-100,-100,0,0,100,0.00,40.00,8,1,16,0.00
2014-3-10,47,37,32,37,-59,-100,76,20,49,0.00,40.00,6,2,20,0.00
2014-3-11,47,34,26,31,-67,-100,92,18,53,0.00,40.00,1,0,5,0.00
2014-3-12,47,30,24,33,-75,-100,100,16,69,0.00,40.00,2,0,5,0.00
2014-3-13,40,32,28,33,-56,-100,100,27,61,0.00,40.00,1,1,5,0.00
2014-3-14,38,34,33,-100,-100,-100,0,0,100,0.00,40.00,5,1,13,0.00
2014-3-15,46,33,30,-100,-100,-100,0,0,100,0.00,40.00,5,1,13,0.00
2014-3-16,46,39,34,-100,-100,-100,0,0,100,0.00,40.00,7,4,16,0.00
2014-3-17,38,36,34,27,-65,-100,75,16,40,0.00,40.00,5,4,14,0.00
2014-3-18,43,31,26,35,-52,-100,100,32,73,0.00,40.00,1,0,5,0.00
2014-3-19,43,40,36,-100,-100,-100,0,0,100,0.00,40.00,6,3,15,0.00
2014-3-20,41,33,28,28,-20,-100,95,49,58,0.00,40.00,6,2,17,0.00
2014-3-21,44,34,22,-100,-100,-100,0,0,100,0.00,40.00,3,2,8,0.00
2014-3-22,48,33,22,26,-69,-100,64,14,49,0.00,40.00,2,1,7,0.00
2014-3-23,50,35,28,33,-66,-100,96,18,40,0.00,40.00,2,0,6,0.00
2014-3-24,52,38,30,32,-84,-100,100,12,96,0.00,40.00,2,1,10,0.00
2014-3-25,46,38,33,39,-80,-100,76,11,76,0.00,40.00,1,1,3,0.00
2014-3-26,49,39,29,31,-67,-100,49,12,49,0.00,40.00,2,1,7,0.00
2014-3-27,49,39,31,38,-45,-100,88,31,65,0.00,40.00,5,1,10,0.00
2014-3-28,37,34,28,-100,-100,-100,0,0,100,0.00,40.00,1,0,5,0.00
2014-3-29,44,35,33,-100,-100,-100,0,0,100,0.00,40.00,2,1,6,0.00
2014-3-30,45,38,31,34,-23,-100,88,41,51,0.00,40.00,7,2,14,0.00
2014-3-31,51,35,27,33,-82,-100,78,8,32,0.00,40.00,2,1,9,0.00
2014-4-1,55,38,30,32,-82,-100,88,11,75,0.00,40.00,3,1,12,0.00
2014-4-2,54,40,29,33,-73,-100,100,15,52,0.00,40.00,6,2,14,0.00
2014-4-3,52,39,30,36,-43,-100,96,33,61,0.00,40.00,2,1,8,0.00
2014-4-4,51,38,31,38,-65,-100,100,21,52,0.00,40.00,6,2,14,0.00
2014-4-5,50,35,31,42,-80,-100,85,11,71,0.00,40.00,3,1,9,0.00
2014-4-6,52,39,33,37,-69,-100,82,14,44,0.00,40.00,9,3,21,0.00
2014-4-7,65,45,36,31,-91,-100,35,2,35,0.00,40.00,3,1,7,0.00
2014-4-8,57,39,34,-100,-100,-100,0,0,100,0.00,40.00,3,1,9,0.00
2014-4-9,51,46,38,23,-59,-100,54,18,54,0.00,40.00,5,3,16,0.00
2014-4-10,58,47,34,19,-78,-100,49,9,47,0.00,40.00,7,4,17,0.00
2014-4-11,56,44,33,35,-50,-100,100,31,59,0.00,40.00,7,3,22,0.00
2014-4-12,33,33,33,-100,-100,-100,0,0,100,0.00,40.00,1,1,1,0.00
2014-4-13,60,49,29,21,-90,-100,51,4,51,0.00,40.00,3,1,10,0.00
2014-4-14,62,42,27,31,-60,-100,100,25,55,0.00,40.00,3,1,12,0.00
2014-4-15,52,48,42,-100,-100,-100,0,0,100,0.00,40.00,6,5,18,0.00